Fairhaven, MA (02719)

10:31 AM EDT on May 25, 2015 (GMT -0400)
Fairhaven Center | | Change Station
CLOSE
Current Station
Personal Weather Station
Location: Fairhaven, MA
Elevation: 15 ft
Nearby Weather Stations

Elev 15 ft 41.64 °N, 70.90 °W | Updated 4 minutes ago

Clear
Clear
69.8 °F
Feels Like 69.8 °F
N
2.0
Wind Variable Wind from SSW
Gusts 5.0 mph

Today
High -- | Low -- °F
--% Chance of Precip.
Yesterday
High -- | Low -- °F
Precip. -- in
5:15 AM 8:05 PM
Waxing Crescent, 49% visible
Pressure 30.26 in
Visibility 10.0 miles
Clouds Clear
Dew Point 59 °F
Humidity 69%
Rainfall 0.00 in
Snow Depth Not available.
UV 8 out of 12
Pollen 9.30 out of 12
Air Quality Not available.
Flu Activity Local Activity
METAR KEWB 251353Z 23009G15KT 10SM CLR 25/14 A3026

More Conditions Fewer Conditions

Pressure 30.26 in
Visibility 10.0 miles
Clouds Clear
Dew Point 59 °F
Humidity 69%
Rainfall 0.00 in
Snow Depth Not available.
UV 8 out of 12
Pollen 9.30 out of 12
Air Quality Not available.
Flu Activity Local Activity
METAR KEWB 251353Z 23009G15KT 10SM CLR 25/14 A3026

More Conditions Fewer Conditions

10-Day Weather Forecast

Almanac

Astronomy

May. 25, 2015 Rise Set
Actual Time
Civil Twilight
Nautical Twilight
Astronomical Twilight
Moon
Length of Visible Light
Length of Day
Tomorrow will be .
, % of the Moon is Illuminated

Today's Extremes

State Highs State Lows

Community

WunderPhotos

Upload Photos

1,824,024 photos uploaded!

WunderBlogs® & News

Nearby

Air Quality

  Air Quality AQ Index Pollutant
Not available.

Snow Depth

Station Depth Elevation

Earthquake Activity

City Distance Mag. Time & Date
Minimum magnitude displayed is 2.5.

Coastal Water Temperatures

Place Temperature

Stations

Nearby Weather Stations

Station Location Temp. Windchill Dew Point Humidity Wind Precip. Elev Updated Type